createdAt,value
2017-08-08T00:01:24.563Z,21.25
2017-08-08T00:03:51.966Z,21.22
2017-08-08T00:06:19.347Z,21.16
2017-08-08T00:08:46.759Z,21.01
2017-08-08T00:11:14.153Z,20.91
2017-08-08T00:13:41.536Z,20.76
2017-08-08T00:16:08.947Z,20.68
2017-08-08T00:18:36.542Z,20.59
2017-08-08T00:21:03.939Z,20.59
2017-08-08T00:23:31.318Z,20.59
2017-08-08T00:25:58.715Z,20.55
2017-08-08T00:28:26.098Z,20.50
2017-08-08T00:30:53.501Z,20.46
2017-08-08T00:33:20.879Z,20.41
2017-08-08T00:35:48.283Z,20.38
2017-08-08T00:38:15.688Z,20.29
2017-08-08T00:40:43.285Z,20.31
2017-08-08T00:43:10.679Z,20.29
2017-08-08T00:45:38.076Z,20.35
2017-08-08T00:48:05.458Z,20.34
2017-08-08T00:50:32.864Z,20.36
2017-08-08T00:53:00.250Z,20.29
2017-08-08T00:55:27.654Z,20.28
2017-08-08T00:57:55.047Z,20.19
2017-08-08T01:00:22.434Z,20.12
2017-08-08T01:02:49.838Z,20.01
2017-08-08T01:05:17.236Z,19.99
2017-08-08T01:07:44.624Z,19.98
2017-08-08T01:10:12.016Z,20.03
2017-08-08T01:12:39.618Z,20.05
2017-08-08T01:15:07.224Z,19.97
2017-08-08T01:17:34.615Z,19.94
2017-08-08T01:20:02.020Z,19.79
2017-08-08T01:22:29.407Z,19.78
2017-08-08T01:24:56.813Z,19.68
2017-08-08T01:27:24.208Z,19.59
2017-08-08T01:29:51.592Z,19.61
2017-08-08T01:32:18.986Z,19.56
2017-08-08T01:34:46.383Z,19.45
2017-08-08T01:37:13.771Z,19.44
2017-08-08T01:39:41.154Z,19.36
2017-08-08T01:42:08.550Z,19.35
2017-08-08T01:44:35.935Z,19.39
2017-08-08T01:47:03.343Z,19.29
2017-08-08T01:49:30.943Z,19.26
2017-08-08T01:51:58.335Z,19.33
2017-08-08T01:54:25.738Z,19.23
2017-08-08T01:56:53.128Z,19.23
2017-08-08T01:59:20.527Z,19.19
2017-08-08T02:01:47.918Z,19.14
2017-08-08T02:04:15.323Z,19.06
2017-08-08T02:06:42.703Z,19.14
2017-08-08T02:09:10.094Z,19.14
2017-08-08T02:11:37.491Z,19.06
2017-08-08T02:14:04.886Z,19.10
2017-08-08T02:16:32.269Z,19.08
2017-08-08T02:18:59.674Z,18.94
2017-08-08T02:21:27.062Z,18.89
2017-08-08T02:23:54.493Z,18.86
2017-08-08T02:26:21.856Z,18.89
2017-08-08T02:28:49.262Z,18.76
2017-08-08T02:31:16.662Z,18.86
2017-08-08T02:33:44.058Z,18.87
2017-08-08T02:36:11.453Z,18.84
2017-08-08T02:38:38.850Z,18.75
2017-08-08T02:41:06.238Z,18.77
2017-08-08T02:43:33.623Z,18.74
2017-08-08T02:46:01.025Z,18.67
2017-08-08T02:48:28.444Z,18.72
2017-08-08T02:50:56.051Z,18.72
2017-08-08T02:53:23.455Z,18.76
2017-08-08T02:55:50.846Z,18.72
2017-08-08T02:58:18.239Z,18.73
2017-08-08T03:00:45.627Z,18.67
2017-08-08T03:03:13.007Z,18.60
2017-08-08T03:05:40.415Z,18.49
2017-08-08T03:08:08.003Z,18.52
2017-08-08T03:10:35.399Z,18.39
2017-08-08T03:13:02.782Z,18.39
2017-08-08T03:15:30.175Z,18.35
2017-08-08T03:17:57.562Z,18.41
2017-08-08T03:20:24.963Z,18.43
2017-08-08T03:22:52.351Z,18.37
2017-08-08T03:25:19.742Z,18.37
2017-08-08T03:27:47.135Z,18.37
2017-08-08T03:30:14.763Z,18.31
2017-08-08T03:32:42.286Z,18.30
2017-08-08T03:35:09.675Z,18.25
2017-08-08T03:37:37.066Z,18.25
2017-08-08T03:40:04.467Z,18.28
2017-08-08T03:42:31.866Z,18.25
2017-08-08T03:44:59.248Z,18.16
2017-08-08T03:47:26.679Z,18.17
2017-08-08T03:49:54.071Z,18.10
2017-08-08T03:52:21.463Z,18.08
2017-08-08T03:54:48.842Z,18.10
2017-08-08T03:57:16.251Z,18.10
2017-08-08T03:59:43.637Z,18.07
2017-08-08T04:02:11.080Z,18.05
2017-08-08T04:04:38.479Z,17.95
2017-08-08T04:07:05.883Z,17.80
2017-08-08T04:09:33.287Z,17.82
2017-08-08T04:12:00.914Z,17.78
2017-08-08T04:14:28.299Z,17.93
2017-08-08T04:16:55.700Z,17.86
2017-08-08T04:19:23.085Z,17.90
2017-08-08T04:21:50.565Z,17.89
2017-08-08T04:24:17.968Z,17.96
2017-08-08T04:26:45.354Z,17.90
2017-08-08T04:29:12.743Z,17.93
2017-08-08T04:31:40.143Z,17.96
2017-08-08T04:34:07.694Z,18.00
2017-08-08T04:36:35.078Z,17.92
2017-08-08T04:39:02.471Z,17.89
2017-08-08T04:41:29.868Z,17.86
2017-08-08T04:43:57.265Z,17.95
2017-08-08T04:46:24.652Z,17.95
2017-08-08T04:48:52.055Z,17.95
2017-08-08T04:51:19.434Z,18.06
2017-08-08T04:53:46.846Z,18.08
2017-08-08T04:56:14.470Z,18.22
2017-08-08T04:58:41.874Z,18.30
2017-08-08T05:01:09.263Z,18.28
2017-08-08T05:03:36.663Z,18.33
2017-08-08T05:06:04.050Z,18.29
2017-08-08T05:08:31.444Z,18.40
2017-08-08T05:10:58.832Z,18.48
2017-08-08T05:13:26.221Z,18.46
2017-08-08T05:15:53.620Z,18.55
2017-08-08T05:18:21.018Z,18.60
2017-08-08T05:20:48.406Z,18.62
2017-08-08T05:23:15.794Z,18.64
2017-08-08T05:25:43.187Z,18.74
2017-08-08T05:28:10.578Z,18.73
2017-08-08T05:30:37.991Z,18.78
2017-08-08T05:33:05.372Z,18.76
2017-08-08T05:35:32.778Z,18.77
2017-08-08T05:38:00.162Z,18.77
2017-08-08T05:40:27.554Z,18.90
2017-08-08T05:42:54.960Z,19.02
2017-08-08T05:45:22.351Z,19.07
2017-08-08T05:47:49.734Z,19.08
2017-08-08T05:50:17.130Z,19.15
2017-08-08T05:52:44.511Z,19.25
2017-08-08T05:55:11.894Z,19.34
2017-08-08T05:57:39.292Z,19.31
2017-08-08T06:00:06.697Z,19.24
2017-08-08T06:02:34.099Z,19.28
2017-08-08T06:05:01.479Z,19.40
2017-08-08T06:07:28.880Z,19.29
2017-08-08T06:09:56.271Z,19.28
2017-08-08T06:12:23.671Z,19.29
2017-08-08T06:14:51.068Z,19.22
2017-08-08T06:17:18.470Z,19.15
2017-08-08T06:19:45.863Z,19.31
2017-08-08T06:22:13.251Z,19.30
2017-08-08T06:24:40.642Z,19.26
2017-08-08T06:27:08.043Z,19.30
2017-08-08T06:29:35.472Z,19.40
2017-08-08T06:32:02.863Z,19.43
2017-08-08T06:34:30.259Z,19.32
2017-08-08T06:36:57.657Z,19.29
2017-08-08T06:39:25.050Z,19.42
2017-08-08T06:41:52.446Z,19.50
2017-08-08T06:44:19.830Z,19.55
2017-08-08T06:46:47.223Z,19.56
2017-08-08T06:49:14.611Z,19.55
2017-08-08T06:51:42.011Z,19.67
2017-08-08T06:54:09.406Z,19.68
2017-08-08T06:56:36.799Z,19.76
2017-08-08T06:59:04.188Z,19.80
2017-08-08T07:01:31.582Z,19.86
2017-08-08T07:03:58.980Z,19.93
2017-08-08T07:06:26.366Z,19.91
2017-08-08T07:08:53.974Z,20.01
2017-08-08T07:11:21.359Z,20.06
2017-08-08T07:13:48.759Z,20.15
2017-08-08T07:16:16.155Z,20.20
2017-08-08T07:18:43.543Z,20.17
2017-08-08T07:21:10.943Z,20.18
2017-08-08T07:23:38.542Z,20.16
2017-08-08T07:26:05.934Z,20.27
2017-08-08T07:28:33.339Z,20.32
2017-08-08T07:31:00.740Z,20.41
2017-08-08T07:33:28.127Z,20.39
2017-08-08T07:35:55.532Z,20.45
2017-08-08T07:38:22.911Z,20.45
2017-08-08T07:40:50.307Z,20.47
2017-08-08T07:43:17.699Z,20.50
2017-08-08T07:45:45.097Z,20.50
2017-08-08T07:48:12.486Z,20.58
2017-08-08T07:50:39.874Z,20.66
2017-08-08T07:53:07.265Z,20.83
2017-08-08T07:55:34.682Z,20.98
2017-08-08T07:58:02.075Z,20.98
2017-08-08T08:00:31.590Z,20.98
2017-08-08T08:02:59.036Z,21.12
2017-08-08T08:05:26.439Z,21.23
2017-08-08T08:07:53.841Z,21.41
2017-08-08T08:10:21.222Z,21.56
2017-08-08T08:12:48.621Z,21.71
2017-08-08T08:15:16.006Z,21.75
2017-08-08T08:17:43.428Z,21.85
2017-08-08T08:20:10.814Z,21.98
2017-08-08T08:22:38.195Z,22.19
2017-08-08T08:25:05.604Z,22.27
2017-08-08T08:27:32.990Z,22.44
2017-08-08T08:30:00.398Z,22.57
2017-08-08T08:32:27.789Z,22.69
2017-08-08T08:34:55.173Z,22.86
2017-08-08T08:37:22.562Z,23.02
2017-08-08T08:39:50.167Z,23.05
2017-08-08T08:42:17.561Z,23.16
2017-08-08T08:44:44.968Z,23.27
2017-08-08T08:47:12.356Z,23.46
2017-08-08T08:49:39.738Z,23.60
2017-08-08T08:52:07.140Z,23.74
2017-08-08T08:54:34.535Z,23.81
2017-08-08T08:57:01.943Z,23.88
2017-08-08T08:59:29.555Z,23.91
2017-08-08T09:01:56.959Z,23.96
2017-08-08T09:04:24.344Z,24.08
2017-08-08T09:06:51.968Z,24.27
2017-08-08T09:09:19.351Z,24.40
2017-08-08T09:11:46.746Z,24.48
2017-08-08T09:14:14.127Z,24.67
2017-08-08T09:16:41.520Z,24.67
2017-08-08T09:19:08.903Z,24.76
2017-08-08T09:21:36.300Z,24.80
2017-08-08T09:24:03.890Z,24.84
2017-08-08T09:26:31.303Z,24.91
2017-08-08T09:28:58.683Z,24.97
2017-08-08T09:31:26.290Z,25.12
2017-08-08T09:33:53.688Z,25.16
2017-08-08T09:36:21.074Z,25.29
2017-08-08T09:38:48.471Z,25.26
2017-08-08T09:41:15.858Z,25.37
2017-08-08T09:43:43.355Z,25.41
2017-08-08T09:46:10.747Z,25.38
2017-08-08T09:48:38.132Z,25.39
2017-08-08T09:51:05.520Z,25.32
2017-08-08T09:53:32.923Z,25.28
2017-08-08T09:56:00.319Z,25.41
2017-08-08T09:58:27.725Z,25.55
2017-08-08T10:00:55.178Z,25.58
2017-08-08T10:03:22.568Z,25.60
2017-08-08T10:05:49.956Z,25.65
2017-08-08T10:08:17.359Z,25.45
2017-08-08T10:10:44.756Z,25.50
2017-08-08T10:13:12.152Z,25.48
2017-08-08T10:15:39.538Z,25.57
2017-08-08T10:18:06.943Z,25.55
2017-08-08T10:20:34.551Z,25.58
2017-08-08T10:23:01.932Z,25.68
2017-08-08T10:25:29.331Z,25.67
2017-08-08T10:27:56.720Z,25.69
2017-08-08T10:30:24.106Z,25.81
2017-08-08T10:32:51.509Z,25.88
2017-08-08T10:35:18.899Z,25.97
2017-08-08T10:37:46.290Z,25.89
2017-08-08T10:40:13.683Z,26.00
2017-08-08T10:42:41.092Z,25.98
2017-08-08T10:45:08.693Z,25.93
2017-08-08T10:47:36.078Z,25.90
2017-08-08T10:50:03.481Z,25.85
2017-08-08T10:52:30.862Z,25.87
2017-08-08T10:54:58.258Z,25.65
2017-08-08T10:57:26.584Z,25.64
2017-08-08T10:59:53.988Z,25.60
2017-08-08T11:02:21.406Z,25.57
2017-08-08T11:04:48.799Z,25.57
2017-08-08T11:07:16.199Z,25.60
2017-08-08T11:09:43.594Z,25.60
2017-08-08T11:12:10.998Z,25.68
2017-08-08T11:14:38.432Z,25.54
2017-08-08T11:17:05.831Z,25.52
2017-08-08T11:19:33.213Z,25.46
2017-08-08T11:22:00.615Z,25.48
2017-08-08T11:24:28.011Z,25.57
2017-08-08T11:26:55.411Z,25.57
2017-08-08T11:29:22.802Z,25.53
2017-08-08T11:31:50.223Z,25.52
2017-08-08T11:34:17.616Z,25.46
2017-08-08T11:36:45.018Z,25.37
2017-08-08T11:39:12.427Z,25.32
2017-08-08T11:41:39.823Z,25.40
2017-08-08T11:44:07.217Z,25.40
2017-08-08T11:46:34.613Z,25.42
2017-08-08T11:49:02.003Z,25.36
2017-08-08T11:51:29.719Z,25.32
2017-08-08T11:53:57.110Z,25.35
2017-08-08T11:56:24.510Z,25.46
2017-08-08T11:58:51.917Z,25.39
2017-08-08T12:01:19.299Z,25.45
2017-08-08T12:03:46.687Z,25.54
2017-08-08T12:06:14.074Z,25.48
2017-08-08T12:08:41.459Z,25.47
2017-08-08T12:11:08.862Z,25.61
2017-08-08T12:13:36.254Z,25.79
2017-08-08T12:16:03.653Z,25.84
2017-08-08T12:18:31.034Z,25.76
2017-08-08T12:20:58.442Z,25.78
2017-08-08T12:23:25.834Z,25.83
2017-08-08T12:25:53.227Z,25.89
2017-08-08T12:28:20.616Z,25.83
2017-08-08T12:30:48.011Z,25.86
2017-08-08T12:33:15.390Z,25.89
2017-08-08T12:35:42.802Z,26.03
2017-08-08T12:38:10.188Z,25.96
2017-08-08T12:40:37.619Z,26.05
2017-08-08T12:43:05.224Z,26.09
2017-08-08T12:45:32.614Z,25.95
2017-08-08T12:48:00.011Z,25.84
2017-08-08T12:50:27.402Z,26.00
2017-08-08T12:52:54.790Z,26.05
2017-08-08T12:55:22.191Z,25.99
2017-08-08T12:57:49.586Z,25.96
2017-08-08T13:00:16.966Z,25.96
2017-08-08T13:02:44.367Z,25.89
2017-08-08T13:05:11.746Z,25.89
2017-08-08T13:07:39.187Z,26.01
2017-08-08T13:10:06.586Z,25.83
2017-08-08T13:12:34.035Z,25.82
2017-08-08T13:15:01.706Z,25.97
2017-08-08T13:17:29.103Z,25.94
2017-08-08T13:19:56.722Z,25.99
2017-08-08T13:22:24.119Z,26.04
2017-08-08T13:24:51.506Z,26.07
2017-08-08T13:27:18.932Z,26.12
2017-08-08T13:29:46.331Z,26.05
2017-08-08T13:32:13.746Z,26.19
2017-08-08T13:34:41.147Z,26.21
2017-08-08T13:37:09.354Z,26.21
2017-08-08T13:39:36.747Z,26.24
2017-08-08T13:42:04.130Z,26.35
2017-08-08T13:44:31.532Z,26.38
2017-08-08T13:46:58.911Z,26.35
2017-08-08T13:49:26.327Z,26.42
2017-08-08T13:51:53.711Z,26.55
2017-08-08T13:54:21.107Z,26.64
2017-08-08T13:56:48.506Z,26.75
2017-08-08T13:59:15.894Z,26.76
2017-08-08T14:01:43.334Z,26.79
2017-08-08T14:04:10.735Z,26.82
2017-08-08T14:06:38.127Z,26.88
2017-08-08T14:09:05.510Z,26.97
2017-08-08T14:11:32.947Z,26.88
2017-08-08T14:14:00.362Z,26.88
2017-08-08T14:16:27.759Z,26.91
2017-08-08T14:18:55.159Z,26.78
2017-08-08T14:21:22.615Z,26.65
2017-08-08T14:23:50.125Z,26.69
2017-08-08T14:26:17.531Z,26.39
2017-08-08T14:28:44.929Z,26.20
2017-08-08T14:31:12.322Z,26.07
2017-08-08T14:33:39.702Z,25.82
2017-08-08T14:36:07.102Z,25.64
2017-08-08T14:38:34.487Z,25.44
2017-08-08T14:41:01.891Z,25.26
2017-08-08T14:43:29.279Z,25.12
2017-08-08T14:45:56.674Z,25.13
2017-08-08T14:48:24.068Z,25.09
2017-08-08T14:50:51.459Z,25.14
2017-08-08T14:53:18.855Z,25.18
2017-08-08T14:55:46.248Z,25.28
2017-08-08T14:58:13.640Z,25.24
2017-08-08T15:00:41.035Z,25.18
2017-08-08T15:03:08.431Z,25.00
2017-08-08T15:05:35.851Z,24.83
2017-08-08T15:08:03.243Z,24.83
2017-08-08T15:10:30.634Z,24.72
2017-08-08T15:12:58.034Z,24.70
2017-08-08T15:15:25.452Z,24.80
2017-08-08T15:17:52.830Z,24.84
2017-08-08T15:20:20.224Z,24.72
2017-08-08T15:22:47.631Z,24.49
2017-08-08T15:25:15.031Z,24.55
2017-08-08T15:27:42.434Z,24.48
2017-08-08T15:30:09.821Z,24.42
2017-08-08T15:32:37.227Z,24.42
2017-08-08T15:35:04.623Z,24.46
2017-08-08T15:37:32.054Z,24.68
2017-08-08T15:39:59.443Z,24.79
2017-08-08T15:42:26.846Z,24.98
2017-08-08T15:44:54.243Z,25.11
2017-08-08T15:47:21.646Z,25.22
2017-08-08T15:49:49.042Z,25.19
2017-08-08T15:52:16.656Z,25.14
2017-08-08T15:54:44.155Z,25.22
2017-08-08T15:57:11.558Z,25.25
2017-08-08T15:59:38.955Z,25.26
2017-08-08T16:02:06.378Z,25.29
2017-08-08T16:04:33.780Z,25.31
2017-08-08T16:07:01.171Z,25.43
2017-08-08T16:09:28.587Z,25.47
2017-08-08T16:11:55.990Z,25.52
2017-08-08T16:14:23.382Z,25.41
2017-08-08T16:16:50.775Z,25.29
2017-08-08T16:19:18.195Z,25.05
2017-08-08T16:21:45.597Z,25.13
2017-08-08T16:24:12.988Z,25.16
2017-08-08T16:26:40.391Z,25.23
2017-08-08T16:29:07.774Z,25.31
2017-08-08T16:31:35.179Z,25.29
2017-08-08T16:34:02.578Z,25.25
2017-08-08T16:36:29.984Z,25.32
2017-08-08T16:38:57.375Z,25.18
2017-08-08T16:41:24.982Z,25.11
2017-08-08T16:43:52.596Z,24.94
2017-08-08T16:46:20.004Z,24.83
2017-08-08T16:48:47.394Z,24.67
2017-08-08T16:51:14.808Z,24.68
2017-08-08T16:53:42.182Z,24.53
2017-08-08T16:56:09.587Z,24.57
2017-08-08T16:58:36.978Z,24.39
2017-08-08T17:01:04.371Z,24.48
2017-08-08T17:03:31.759Z,24.38
2017-08-08T17:05:59.167Z,24.20
2017-08-08T17:08:26.571Z,24.15
2017-08-08T17:10:53.999Z,23.99
2017-08-08T17:13:21.394Z,23.85
2017-08-08T17:15:48.778Z,23.72
2017-08-08T17:18:16.184Z,23.87
2017-08-08T17:20:43.567Z,23.97
2017-08-08T17:23:10.949Z,24.07
2017-08-08T17:25:38.351Z,24.13
2017-08-08T17:28:05.747Z,24.08
2017-08-08T17:30:33.149Z,24.20
2017-08-08T17:33:00.546Z,24.14
2017-08-08T17:35:27.935Z,24.27
2017-08-08T17:37:55.543Z,24.33
2017-08-08T17:40:22.930Z,24.29
2017-08-08T17:42:50.335Z,24.17
2017-08-08T17:45:17.942Z,23.84
2017-08-08T17:47:45.555Z,23.76
2017-08-08T17:50:12.947Z,23.67
2017-08-08T17:52:40.363Z,23.57
2017-08-08T17:55:07.754Z,23.42
2017-08-08T17:57:35.167Z,23.40
2017-08-08T18:00:02.563Z,23.32
2017-08-08T18:02:30.183Z,23.11
2017-08-08T18:04:57.785Z,22.97
2017-08-08T18:07:25.173Z,22.95
2017-08-08T18:09:52.597Z,22.85
2017-08-08T18:12:20.006Z,22.69
2017-08-08T18:14:47.419Z,22.70
2017-08-08T18:17:15.026Z,22.63
2017-08-08T18:19:42.427Z,22.58
2017-08-08T18:22:09.818Z,22.66
2017-08-08T18:24:37.221Z,22.89
2017-08-08T18:27:04.678Z,22.99
2017-08-08T18:29:32.088Z,23.09
2017-08-08T18:31:59.701Z,23.28
2017-08-08T18:34:27.115Z,23.27
2017-08-08T18:36:54.503Z,23.25
2017-08-08T18:39:21.898Z,23.35
2017-08-08T18:41:49.512Z,23.44
2017-08-08T18:44:16.903Z,23.66
2017-08-08T18:46:44.298Z,23.79
2017-08-08T18:49:11.694Z,23.86
2017-08-08T18:51:39.099Z,23.87
2017-08-08T18:54:06.522Z,23.59
2017-08-08T18:56:33.916Z,23.63
2017-08-08T18:59:01.314Z,23.64
2017-08-08T19:01:28.818Z,23.61
2017-08-08T19:03:56.187Z,23.77
2017-08-08T19:06:23.654Z,23.84
2017-08-08T19:08:51.024Z,23.88
2017-08-08T19:11:18.427Z,23.90
2017-08-08T19:13:45.825Z,23.95
2017-08-08T19:16:13.211Z,23.99
2017-08-08T19:18:40.610Z,23.79
2017-08-08T19:21:08.010Z,23.61
2017-08-08T19:23:35.402Z,23.63
2017-08-08T19:26:02.810Z,23.59
2017-08-08T19:28:30.202Z,23.53
2017-08-08T19:30:57.607Z,23.49
2017-08-08T19:33:24.998Z,23.56
2017-08-08T19:35:52.412Z,23.49
2017-08-08T19:38:20.427Z,23.34
2017-08-08T19:40:48.047Z,23.23
2017-08-08T19:43:15.441Z,23.30
2017-08-08T19:45:42.842Z,23.11
2017-08-08T19:48:10.236Z,23.13
2017-08-08T19:50:37.659Z,23.08
2017-08-08T19:53:05.050Z,22.95
2017-08-08T19:55:32.698Z,22.97
2017-08-08T19:58:00.112Z,22.75
2017-08-08T20:00:27.568Z,22.79
2017-08-08T20:02:54.967Z,22.87
2017-08-08T20:05:22.359Z,22.94
2017-08-08T20:07:49.787Z,23.04
2017-08-08T20:10:17.186Z,23.06
2017-08-08T20:12:44.586Z,23.09
2017-08-08T20:15:11.982Z,22.96
2017-08-08T20:17:39.383Z,22.90
2017-08-08T20:20:06.784Z,23.02
2017-08-08T20:22:34.190Z,23.09
2017-08-08T20:25:01.591Z,23.23
2017-08-08T20:27:28.986Z,23.25
2017-08-08T20:29:56.411Z,23.09
2017-08-08T20:32:23.824Z,22.69
2017-08-08T20:34:51.231Z,22.65
2017-08-08T20:37:18.850Z,22.64
2017-08-08T20:39:46.478Z,22.58
2017-08-08T20:42:13.879Z,22.46
2017-08-08T20:44:41.271Z,22.41
2017-08-08T20:47:08.668Z,22.52
2017-08-08T20:49:36.070Z,22.51
2017-08-08T20:52:03.458Z,22.33
2017-08-08T20:54:30.866Z,22.22
2017-08-08T20:56:58.255Z,22.34
2017-08-08T20:59:25.672Z,22.44
2017-08-08T21:01:53.065Z,22.49
2017-08-08T21:04:20.467Z,22.54
2017-08-08T21:06:47.858Z,22.48
2017-08-08T21:09:15.263Z,22.40
2017-08-08T21:11:44.331Z,22.33
2017-08-08T21:14:11.763Z,22.20
2017-08-08T21:16:39.159Z,21.93
2017-08-08T21:19:06.575Z,21.89
2017-08-08T21:21:33.962Z,21.75
2017-08-08T21:24:01.367Z,21.73
2017-08-08T21:26:28.764Z,21.66
2017-08-08T21:28:56.167Z,21.66
2017-08-08T21:31:23.553Z,21.78
2017-08-08T21:33:50.942Z,21.80
2017-08-08T21:36:18.345Z,21.86
2017-08-08T21:38:45.739Z,21.98
2017-08-08T21:41:13.131Z,21.91
2017-08-08T21:43:40.535Z,22.09
2017-08-08T21:46:07.919Z,22.19
2017-08-08T21:48:35.322Z,22.34
2017-08-08T21:51:02.918Z,22.43
2017-08-08T21:53:30.338Z,22.49
2017-08-08T21:55:57.724Z,22.52
2017-08-08T21:58:25.115Z,22.58
2017-08-08T22:00:52.728Z,22.52
2017-08-08T22:03:20.118Z,22.63
2017-08-08T22:05:47.516Z,22.68
2017-08-08T22:08:14.903Z,22.65
2017-08-08T22:10:42.290Z,22.65
2017-08-08T22:13:09.691Z,22.58
2017-08-08T22:15:37.078Z,22.65
2017-08-08T22:18:04.480Z,22.50
2017-08-08T22:20:31.886Z,22.41
2017-08-08T22:22:59.279Z,22.27
2017-08-08T22:25:26.677Z,22.27
2017-08-08T22:27:54.310Z,22.33
2017-08-08T22:30:21.703Z,22.21
2017-08-08T22:32:49.103Z,22.02
2017-08-08T22:35:16.499Z,21.81
2017-08-08T22:37:43.901Z,21.68
2017-08-08T22:40:11.309Z,21.62
2017-08-08T22:42:38.949Z,21.55
2017-08-08T22:45:06.347Z,21.38
2017-08-08T22:47:33.758Z,21.39
2017-08-08T22:50:01.155Z,21.39
2017-08-08T22:52:28.554Z,21.34
2017-08-08T22:54:55.955Z,21.18
2017-08-08T22:57:23.366Z,20.97
2017-08-08T22:59:50.763Z,20.80
2017-08-08T23:02:18.166Z,20.72
2017-08-08T23:04:45.550Z,20.49
2017-08-08T23:07:12.955Z,20.34
2017-08-08T23:09:40.363Z,20.46
2017-08-08T23:12:07.763Z,20.67
2017-08-08T23:14:35.158Z,20.60
2017-08-08T23:17:02.555Z,20.54
2017-08-08T23:19:29.959Z,20.51
2017-08-08T23:21:57.644Z,20.45
2017-08-08T23:24:25.047Z,20.44
2017-08-08T23:26:52.443Z,20.43
2017-08-08T23:29:20.115Z,20.48
2017-08-08T23:31:47.506Z,20.27
2017-08-08T23:34:14.916Z,20.30
2017-08-08T23:36:42.317Z,20.20
2017-08-08T23:39:09.706Z,20.23
2017-08-08T23:41:37.116Z,20.13
2017-08-08T23:44:04.528Z,20.19
2017-08-08T23:46:31.924Z,20.34
2017-08-08T23:48:59.331Z,20.35
2017-08-08T23:51:26.725Z,20.46
2017-08-08T23:53:54.126Z,20.44
2017-08-08T23:56:21.515Z,20.40
2017-08-08T23:58:49.183Z,20.41
